D/T METAR WX W/DIR W/SPE G/SPE TEMP DEWP
9/12/19 11:50 EGXT 091150Z 33016G31KT 9999 FEW035 08/M00 Q1010 BLU NNW (330°) 18.4mph 35.7mph 8°C 0°C
9/12/19 11:20 EGXT 091120Z 32020G32KT 9999 FEW035 07/M01 Q1010 RMK BLU NW (320°) 23.0mph 36.8mph 7°C -1°C
9/12/19 10:50 EGXT 091050Z 32019G29KT 9999 FEW035 07/M00 Q1009 RMK BLU NW (320°) 21.9mph 33.4mph 7°C 0°C
9/12/19 10:20 EGXT 091020Z 31017KT CAVOK 07/00 Q1008 RMK BLU NW (310°) 19.6mph 7°C 0°C
9/12/19 09:50 EGXT 090950Z 31017KT CAVOK 07/01 Q1006 RMK BLU NW (310°) 19.6mph 7°C 1°C
9/12/19 09:20 EGXT 090920Z 31018G30KT CAVOK 06/01 Q1005 RMK BLU NW (310°) 20.7mph 34.5mph 6°C 1°C
9/12/19 08:50 EGXT 090850Z 31016KT 9999 FEW040 06/01 Q1004 RMK BLU NW (310°) 18.4mph 6°C 1°C
9/12/19 08:25 EGXT 090825Z 31019KT 9999 FEW036 06/01 Q1002 RMK BLU NW (310°) 21.9mph 6°C 1°C
9/12/19 07:50 EGXT 090750Z 31017KT 9999 FEW036 06/02 Q1001 RMK BLU NW (310°) 19.6mph 6°C 2°C
9/12/19 06:59 EGXT 090659Z 31017KT 9999 BKN032 07/02 Q0999 RMK BLU NW (310°) 19.6mph 7°C 2°C
9/12/19 05:50 EGXT 090550Z AUTO 30014KT 9999 FEW035/// BKN170/// 06/04 Q0995 WNW (300°) 16.1mph 6°C 4°C
9/12/19 04:50 EGXT 090450Z AUTO 28014KT 9999 FEW033/// BKN038/// BKN070/// 06/04 Q0993 W (280°) 16.1mph 6°C 4°C
9/12/19 03:50 EGXT 090350Z AUTO 26008KT 9999 BKN032/// SCT060/// 05/04 Q0991 W (260°) 9.2mph 5°C 4°C
9/12/19 02:50 EGXT 090250Z AUTO 24010KT 9999 BKN039/// BKN210/// 05/04 Q0989 WSW (240°) 11.5mph 5°C 4°C
9/12/19 01:50 EGXT 090150Z AUTO 24012KT 9999 BKN042/// 05/03 Q0988 WSW (240°) 13.8mph 5°C 3°C
9/12/19 00:50 EGXT 090050Z AUTO 22015KT 9999 SCT028/// SCT033/// 05/03 Q0988 SW (220°) 17.3mph 5°C 3°C
8/12/19 23:50 EGXT 082350Z AUTO 22018KT 9999 FEW015/// 05/03 Q0988 SW (220°) 20.7mph 5°C 3°C
8/12/19 22:50 EGXT 082250Z AUTO 22017KT 9999 FEW180/// 05/03 Q0988 SW (220°) 19.6mph 5°C 3°C
8/12/19 21:50 EGXT 082150Z AUTO 22016KT 9999 NCD 05/03 Q0989 SW (220°) 18.4mph 5°C 3°C
8/12/19 20:50 EGXT 082050Z AUTO 22017KT 9999 SCT200/// 05/02 Q0990 SW (220°) 19.6mph 5°C 2°C
8/12/19 19:50 EGXT 081950Z AUTO 22019KT 9999 NCD 05/02 Q0991 SW (220°) 21.9mph 5°C 2°C
8/12/19 18:50 EGXT 081850Z AUTO 23019KT 9999 NCD 06/02 Q0992 RERA SW (230°) 21.9mph 6°C 2°C
8/12/19 17:50 EGXT 081750Z AUTO 24018KT 9999 -RA FEW025/// 06/03 Q0992 -RA WSW (240°) 20.7mph 6°C 3°C
8/12/19 16:50 EGXT 081650Z AUTO 23016KT 9999 NCD 06/03 Q0993 SW (230°) 18.4mph 6°C 3°C
8/12/19 15:50 EGXT 081550Z AUTO 24016KT 9999 FEW050/// 06/04 Q0993 RERA WSW (240°) 18.4mph 6°C 4°C
8/12/19 14:50 EGXT 081450Z AUTO 24017G28KT 9999 FEW041/// BKN050/// 08/02 Q0994 WSW (240°) 19.6mph 32.2mph 8°C 2°C
8/12/19 13:50 EGXT 081350Z AUTO 24022KT 9999 SCT045/// 09/02 Q0994 WSW (240°) 25.3mph 9°C 2°C
8/12/19 12:50 EGXT 081250Z AUTO 25018G29KT 9999 FEW050/// 08/04 Q0995 RERA WSW (250°) 20.7mph 33.4mph 8°C 4°C
8/12/19 11:50 EGXT 081150Z AUTO 25020KT 9999 FEW034/// 10/04 Q0995 WSW (250°) 23.0mph 10°C 4°C
8/12/19 10:50 EGXT 081050Z AUTO 24019G31KT 9999 FEW039/// 09/04 Q0996 WSW (240°) 21.9mph 35.7mph 9°C 4°C
8/12/19 09:50 EGXT 080950Z AUTO 24018KT 9999 NCD 09/04 Q0996 WSW (240°) 20.7mph 9°C 4°C
8/12/19 08:50 EGXT 080850Z AUTO 24016G30KT 9999 BKN033/// 08/04 Q0996 WSW (240°) 18.4mph 34.5mph 8°C 4°C
8/12/19 07:50 EGXT 080750Z AUTO 26018KT 9999 FEW050/// 08/05 Q0996 W (260°) 20.7mph 8°C 5°C
8/12/19 06:50 EGXT 080650Z AUTO 25018KT 9999 NCD 09/05 Q0995 WSW (250°) 20.7mph 9°C 5°C
8/12/19 05:50 EGXT 080550Z AUTO 25025G35KT 9999 NCD 10/04 Q0994 WSW (250°) 28.8mph 40.3mph 10°C 4°C
8/12/19 04:50 EGXT 080450Z AUTO 23021KT 9999 FEW009/// SCT020/// 12/10 Q0993 RERA SW (230°) 24.2mph 12°C 10°C
8/12/19 03:50 EGXT 080350Z AUTO 22022G33KT 6000 -RADZ BKN009/// BKN016/// 11/10 Q0994 -RA -DZ SW (220°) 25.3mph 38.0mph 11°C 10°C
8/12/19 02:50 EGXT 080250Z AUTO 21023G37KT 9999 BKN012/// SCT020/// 11/09 Q0995 RERA SSW (210°) 26.5mph 42.6mph 11°C 9°C
8/12/19 01:50 EGXT 080150Z AUTO 21024G36KT 9999 RA BKN010/// 10/09 Q0996 RA SSW (210°) 27.6mph 41.4mph 10°C 9°C
8/12/19 00:50 EGXT 080050Z AUTO 21022KT 7000 RA SCT011/// SCT033/// 09/09 Q0998 RA SSW (210°) 25.3mph 9°C 9°C
7/12/19 23:50 EGXT 072350Z AUTO 21021KT 9999 -RA OVC009/// 10/08 Q1000 -RA SSW (210°) 24.2mph 10°C 8°C
7/12/19 22:50 EGXT 072250Z AUTO 20021KT 9999 OVC010/// 09/08 Q1001 SSW (200°) 24.2mph 9°C 8°C
7/12/19 21:50 EGXT 072150Z AUTO 22024G34KT 9999 OVC011/// 09/07 Q1003 SW (220°) 27.6mph 39.1mph 9°C 7°C
7/12/19 20:50 EGXT 072050Z AUTO 22019KT 9999 OVC011/// 09/07 Q1004 SW (220°) 21.9mph 9°C 7°C
7/12/19 19:50 EGXT 071950Z AUTO 21016KT 9999 OVC013/// 09/07 Q1006 SSW (210°) 18.4mph 9°C 7°C
7/12/19 18:50 EGXT 071850Z AUTO 21013G23KT 9999 BKN013/// 09/07 Q1007 SSW (210°) 15.0mph 26.5mph 9°C 7°C
7/12/19 17:50 EGXT 071750Z AUTO 22016KT 9999 FEW050/// 08/06 Q1008 SW (220°) 18.4mph 8°C 6°C
7/12/19 16:50 EGXT 071650Z AUTO 21013KT 9999 SCT048/// 08/06 Q1009 SSW (210°) 15.0mph 8°C 6°C